Terminal Aerodrome Forecast
Issued by NWS Cleveland, OH

Home | Current Version | Previous Version | Text Only | Print | Product List | Glossary Off
Versions: 1 2 3 4 5 6 7 8 9 10 11 12 13 14

000
FTUS41 KCLE 181100
TAFTOL
TAF
KTOL 181130Z 1812/1912 30006KT P6SM VCSH SCT040 OVC120
     FM181500 31008KT P6SM VCSH SCT040 OVC100
     FM182100 33010KT P6SM SCT100 OVC200
     FM190100 36006KT P6SM BKN200=

USA.gov is the U.S. government's official web portal to all federal, state and local government web resources and services.